Time;durP1;ratioP1;P1;durP2;ratioP2;P2;SDS_P1;SDS_P2;PMS_P1;PMS_P2;Temp;Humidity;BMP_temperature;BMP_pressure;BME280_temperature;BME280_humidity;BME280_pressure;Samples;Min_cycle;Max_cycle;Signal;HPM_P1;HPM_P2
2023/08/07 00:01:51;;;;;;;1.13;0.93;;;;;;;14.08;41.50;92272.13;4791047;29;20031;-83
2023/08/07 00:04:17;;;;;;;0.75;0.60;;;;;;;14.09;41.32;92272.91;4790839;30;20043;-84
2023/08/07 00:06:42;;;;;;;0.85;0.68;;;;;;;14.04;41.44;92280.97;4791139;29;20629;-84
2023/08/07 00:09:08;;;;;;;0.90;0.73;;;;;;;14.02;41.31;92277.88;4791011;29;20039;-83
2023/08/07 00:11:33;;;;;;;1.40;0.80;;;;;;;14.02;41.14;92272.59;4791024;29;20043;-83
2023/08/07 00:14:00;;;;;;;1.00;0.65;;;;;;;14.02;40.81;92262.84;4791526;29;20405;-82
2023/08/07 00:16:26;;;;;;;1.40;0.82;;;;;;;14.10;40.65;92271.81;4791013;29;20450;-83
2023/08/07 00:18:55;;;;;;;1.88;0.70;;;;;;;14.08;40.65;92274.00;4790828;29;20035;-83
2023/08/07 00:21:22;;;;;;;1.58;0.70;;;;;;;14.00;41.16;92278.16;4790895;29;20058;-83
2023/08/07 00:23:49;;;;;;;2.60;0.70;;;;;;;13.98;40.98;92277.69;4791139;29;20038;-83
2023/08/07 00:26:15;;;;;;;0.52;0.50;;;;;;;14.01;40.77;92279.72;4793567;29;20043;-82
2023/08/07 00:28:41;;;;;;;0.85;0.60;;;;;;;14.00;40.89;92277.41;4793481;29;20050;-83
2023/08/07 00:31:06;;;;;;;1.85;0.95;;;;;;;14.03;40.97;92276.78;4807399;29;20062;-83
2023/08/07 00:33:32;;;;;;;1.10;0.80;;;;;;;13.99;40.66;92279.25;4794176;30;20455;-82
2023/08/07 00:35:57;;;;;;;0.57;0.50;;;;;;;13.98;40.75;92276.94;4792868;30;20051;-83
2023/08/07 00:38:23;;;;;;;0.95;0.60;;;;;;;13.93;41.16;92275.25;4808006;29;20058;-82
2023/08/07 00:40:48;;;;;;;0.68;0.50;;;;;;;13.92;40.87;92276.34;4804946;29;20063;-83
2023/08/07 00:43:14;;;;;;;1.23;0.70;;;;;;;13.91;41.20;92275.53;4776235;30;20047;-82
2023/08/07 00:45:46;;;;;;;0.82;0.60;;;;;;;13.88;41.19;92273.53;4776308;30;20042;-82
2023/08/07 00:48:12;;;;;;;0.85;0.70;;;;;;;13.86;41.07;92273.06;4776438;30;20201;-82
2023/08/07 00:50:40;;;;;;;1.13;0.70;;;;;;;13.83;41.15;92267.69;4804945;29;20135;-82
2023/08/07 00:53:06;;;;;;;1.35;0.60;;;;;;;13.78;41.30;92263.34;4794499;29;20073;-82
2023/08/07 00:55:32;;;;;;;0.98;0.70;;;;;;;13.78;41.28;92271.25;4793288;29;20171;-82
2023/08/07 00:57:59;;;;;;;1.45;0.80;;;;;;;13.78;41.28;92271.25;4807675;29;20055;-81
2023/08/07 01:00:27;;;;;;;1.00;0.70;;;;;;;13.75;40.98;92272.63;4806815;29;20543;-82
2023/08/07 01:02:54;;;;;;;0.88;0.70;;;;;;;13.75;41.36;92272.63;4792086;30;20066;-82
2023/08/07 01:05:20;;;;;;;1.02;0.65;;;;;;;13.72;41.21;92278.50;4793147;29;20039;-83
2023/08/07 01:07:48;;;;;;;1.33;0.60;;;;;;;13.70;40.91;92279.91;4794370;29;20047;-81
2023/08/07 01:10:14;;;;;;;0.73;0.50;;;;;;;13.67;40.78;92273.41;4807158;29;20111;-84
2023/08/07 01:12:52;;;;;;;2.40;0.73;;;;;;;13.68;40.84;92282.84;4776879;30;20118;-82
2023/08/07 01:15:25;;;;;;;0.95;0.70;;;;;;;13.67;40.83;92276.03;4793119;30;20046;-84
2023/08/07 01:17:53;;;;;;;0.98;0.70;;;;;;;13.64;40.88;92274.00;4792859;29;20197;-84
2023/08/07 01:20:19;;;;;;;1.17;0.65;;;;;;;13.63;41.27;92275.09;4792742;30;20074;-83
2023/08/07 01:22:44;;;;;;;0.68;0.68;;;;;;;13.61;41.12;92276.50;4792986;29;20091;-83
2023/08/07 01:25:10;;;;;;;0.60;0.60;;;;;;;13.59;41.39;92274.16;4792397;29;20039;-83
2023/08/07 01:27:45;;;;;;;0.85;0.63;;;;;;;13.56;41.25;92277.44;4777029;30;20109;-82
2023/08/07 01:30:14;;;;;;;0.82;0.63;;;;;;;13.56;41.45;92274.81;4808811;29;20031;-82
2023/08/07 01:33:05;;;;;;;1.08;0.75;;;;;;;13.51;41.38;92275.72;4793966;29;20028;-82
2023/08/07 01:35:35;;;;;;;0.77;0.60;;;;;;;13.48;41.60;92283.44;4793331;30;20050;-81
2023/08/07 01:38:03;;;;;;;1.52;0.88;;;;;;;13.46;41.58;92278.47;4791492;29;20035;-83
2023/08/07 01:40:29;;;;;;;0.88;0.63;;;;;;;13.44;41.87;92282.50;4792772;29;20062;-81
2023/08/07 01:42:56;;;;;;;1.15;0.70;;;;;;;13.42;42.00;92282.03;4791640;30;20043;-82
2023/08/07 01:45:25;;;;;;;1.02;0.68;;;;;;;13.40;41.92;92286.84;4792463;29;20064;-83
2023/08/07 01:47:52;;;;;;;1.55;0.77;;;;;;;13.36;41.81;92291.19;4806389;29;20498;-83
2023/08/07 01:50:21;;;;;;;0.82;0.60;;;;;;;13.36;41.77;92291.94;4792630;29;20039;-83
2023/08/07 01:52:47;;;;;;;0.93;0.50;;;;;;;13.33;42.07;92292.56;4806577;29;20043;-84
2023/08/07 01:55:17;;;;;;;0.88;0.60;;;;;;;13.33;41.81;92297.81;4806399;29;20046;-83
2023/08/07 01:57:49;;;;;;;1.90;0.88;;;;;;;13.35;41.77;92293.00;4777187;30;20507;-82
2023/08/07 02:00:15;;;;;;;0.50;0.50;;;;;;;13.31;41.83;92294.72;4791280;30;20052;-83
2023/08/07 02:02:41;;;;;;;0.70;0.68;;;;;;;13.30;41.84;92298.41;4792210;29;20028;-83
2023/08/07 02:05:06;;;;;;;3.10;0.90;;;;;;;13.29;41.90;92307.41;4790735;30;20075;-82
2023/08/07 02:07:32;;;;;;;1.40;0.90;;;;;;;13.29;41.76;92302.91;4791228;29;20047;-83
2023/08/07 02:10:00;;;;;;;1.08;0.63;;;;;;;13.28;41.79;92301.38;4792884;29;20034;-83
2023/08/07 02:12:26;;;;;;;1.52;0.95;;;;;;;13.31;41.56;92294.72;4791181;30;20059;-82
2023/08/07 02:14:52;;;;;;;1.27;0.77;;;;;;;13.33;41.39;92289.94;4792210;29;20063;-82
2023/08/07 02:17:20;;;;;;;2.80;0.80;;;;;;;13.30;41.85;92287.91;4791918;30;20039;-82
2023/08/07 02:19:46;;;;;;;1.17;0.80;;;;;;;13.27;41.71;92284.00;4805907;29;20039;-82
2023/08/07 02:22:12;;;;;;;1.15;0.60;;;;;;;13.26;41.87;92290.38;4805793;29;20104;-82
2023/08/07 02:24:37;;;;;;;1.70;0.90;;;;;;;13.23;42.00;92303.34;4805830;29;20043;-83
2023/08/07 02:27:03;;;;;;;0.73;0.68;;;;;;;13.20;42.05;92296.84;4791277;29;20040;-83
2023/08/07 02:29:29;;;;;;;1.50;0.80;;;;;;;13.20;42.04;92296.06;4794014;29;20386;-81
2023/08/07 02:31:56;;;;;;;0.52;0.52;;;;;;;13.16;42.54;92295.13;4792718;29;20035;-83
2023/08/07 02:34:22;;;;;;;1.15;0.70;;;;;;;13.09;42.80;92296.34;4805976;29;20430;-83
2023/08/07 02:36:47;;;;;;;1.48;0.80;;;;;;;13.06;43.07;92299.59;4802636;29;20263;-82
2023/08/07 02:39:14;;;;;;;0.90;0.73;;;;;;;13.00;42.97;92292.91;4787970;30;20042;-83
2023/08/07 02:41:39;;;;;;;2.72;0.70;;;;;;;13.03;42.16;92294.94;4788005;30;20035;-83
2023/08/07 02:44:05;;;;;;;1.67;0.88;;;;;;;13.03;42.06;92289.66;4787690;30;20047;-83
2023/08/07 02:46:31;;;;;;;0.65;0.60;;;;;;;13.02;42.14;92288.13;4773089;29;20064;-82
2023/08/07 02:48:57;;;;;;;1.05;0.80;;;;;;;13.03;42.07;92284.41;4790059;29;20444;-82
2023/08/07 02:51:22;;;;;;;1.23;0.68;;;;;;;13.05;42.35;92284.88;4775321;30;20047;-83
2023/08/07 02:53:48;;;;;;;1.33;0.75;;;;;;;13.02;42.82;92288.13;4791845;29;20126;-82
2023/08/07 02:56:13;;;;;;;2.25;0.93;;;;;;;13.00;42.53;92285.03;4791611;29;20048;-82
2023/08/07 02:58:39;;;;;;;0.68;0.52;;;;;;;12.97;42.31;92284.88;4790168;30;20100;-83
2023/08/07 03:01:06;;;;;;;1.23;0.77;;;;;;;12.95;42.51;92282.56;4775345;30;20031;-83
2023/08/07 03:03:32;;;;;;;0.60;0.60;;;;;;;12.90;43.42;92282.69;4791658;30;20309;-83
2023/08/07 03:05:57;;;;;;;0.88;0.70;;;;;;;12.83;44.08;92287.59;4792116;29;20122;-83
2023/08/07 03:08:23;;;;;;;0.95;0.68;;;;;;;12.79;44.17;92284.03;4791342;29;20063;-82
2023/08/07 03:10:57;;;;;;;1.08;0.80;;;;;;;12.73;44.34;92290.53;4790261;30;20039;-83
2023/08/07 03:13:25;;;;;;;1.95;0.80;;;;;;;12.68;44.39;92286.19;4789131;30;20057;-81
2023/08/07 03:15:58;;;;;;;1.85;0.75;;;;;;;12.64;44.21;92285.22;4791733;30;20495;-84
2023/08/07 03:18:24;;;;;;;4.45;0.80;;;;;;;12.60;45.30;92286.91;4789507;30;20384;-83
2023/08/07 03:20:50;;;;;;;3.33;0.80;;;;;;;12.53;45.50;92287.34;4789738;29;20086;-83
2023/08/07 03:23:15;;;;;;;1.65;0.90;;;;;;;12.48;45.75;92290.09;4789704;30;20461;-83
2023/08/07 03:25:41;;;;;;;2.63;0.70;;;;;;;12.46;45.49;92292.25;4791594;30;20054;-83
2023/08/07 03:28:06;;;;;;;1.13;0.80;;;;;;;12.39;44.77;92286.66;4789978;29;20046;-83
2023/08/07 03:30:32;;;;;;;1.35;0.73;;;;;;;12.42;44.27;92288.69;4790826;29;20479;-83
2023/08/07 03:32:58;;;;;;;1.40;0.75;;;;;;;12.41;44.68;92297.66;4790609;30;20131;-83
2023/08/07 03:35:24;;;;;;;3.83;0.90;;;;;;;12.38;46.55;92299.00;4790135;30;20527;-82
2023/08/07 03:37:49;;;;;;;1.45;0.77;;;;;;;12.36;47.76;92303.00;4774915;30;20138;-81
2023/08/07 03:40:16;;;;;;;2.05;0.98;;;;;;;12.31;46.96;92303.91;4789804;30;20035;-83
2023/08/07 03:42:42;;;;;;;0.93;0.70;;;;;;;12.31;45.66;92303.13;4789774;30;20078;-83
2023/08/07 03:45:09;;;;;;;1.30;0.80;;;;;;;12.35;44.01;92301.47;4789478;30;20047;-83
2023/08/07 03:47:35;;;;;;;1.90;1.10;;;;;;;12.36;48.43;92308.25;4789280;29;20392;-83
2023/08/07 03:50:01;;;;;;;1.23;0.73;;;;;;;12.29;47.26;92319.97;4789404;30;20049;-82
2023/08/07 03:52:28;;;;;;;1.83;0.90;;;;;;;12.29;45.53;92306.84;4804028;29;20055;-82
2023/08/07 03:54:54;;;;;;;1.48;0.80;;;;;;;12.28;45.64;92301.91;4804942;29;20104;-83
2023/08/07 03:57:20;;;;;;;1.15;0.85;;;;;;;12.26;45.90;92310.06;4804225;29;20047;-82
2023/08/07 03:59:46;;;;;;;1.08;0.70;;;;;;;12.25;47.27;92310.38;4805972;29;20052;-82
2023/08/07 04:02:11;;;;;;;1.33;0.80;;;;;;;12.18;49.76;92312.63;4795972;29;20035;-83
2023/08/07 04:04:37;;;;;;;2.10;0.80;;;;;;;12.11;49.64;92307.03;4797040;30;20054;-83
2023/08/07 04:07:02;;;;;;;3.20;0.70;;;;;;;12.02;50.49;92304.34;4810623;29;20115;-83
2023/08/07 04:09:28;;;;;;;2.40;0.80;;;;;;;11.99;50.02;92313.59;4781151;30;20042;-83
2023/08/07 04:11:54;;;;;;;0.95;0.70;;;;;;;12.01;47.67;92313.31;4796911;30;20051;-82
2023/08/07 04:14:19;;;;;;;1.75;0.90;;;;;;;12.00;49.07;92314.38;4810729;29;20104;-83
2023/08/07 04:16:45;;;;;;;1.15;0.88;;;;;;;11.95;51.67;92309.25;4780439;30;20067;-83
2023/08/07 04:19:10;;;;;;;1.38;0.80;;;;;;;11.92;51.72;92305.38;4810418;29;20096;-82
2023/08/07 04:21:36;;;;;;;1.88;1.00;;;;;;;11.85;54.20;92297.13;4810417;29;20039;-82
2023/08/07 04:24:10;;;;;;;2.55;1.27;;;;;;;11.77;54.01;92303.84;4795107;30;20059;-83
2023/08/07 04:26:36;;;;;;;2.83;1.48;;;;;;;11.66;54.05;92299.91;4796386;29;20054;-83
2023/08/07 04:29:02;;;;;;;2.22;1.35;;;;;;;11.58;53.94;92298.00;4796152;29;20105;-83
2023/08/07 04:31:29;;;;;;;3.45;1.50;;;;;;;11.52;53.58;92293.94;4809726;29;20488;-83
2023/08/07 04:33:54;;;;;;;2.40;1.23;;;;;;;11.48;53.92;92295.59;4795872;29;20403;-83
2023/08/07 04:36:20;;;;;;;2.10;1.10;;;;;;;11.46;54.43;92303.75;4795947;29;20035;-82
2023/08/07 04:38:46;;;;;;;2.63;0.80;;;;;;;11.43;54.85;92289.38;4794831;30;20036;-83
2023/08/07 04:41:12;;;;;;;1.20;0.82;;;;;;;11.41;55.18;92291.50;4797022;30;20053;-83
2023/08/07 04:43:37;;;;;;;1.83;0.90;;;;;;;11.40;56.15;92289.97;4796294;29;20034;-82
2023/08/07 04:46:03;;;;;;;1.42;0.80;;;;;;;11.38;58.54;92299.97;4809836;29;20100;-83
2023/08/07 04:48:28;;;;;;;1.45;0.80;;;;;;;11.38;57.47;92297.34;4796107;29;20051;-81
2023/08/07 04:50:54;;;;;;;1.38;0.80;;;;;;;11.39;56.61;92292.88;4796258;29;20110;-83
2023/08/07 04:53:19;;;;;;;1.58;0.77;;;;;;;11.42;57.28;92303.56;4795954;29;20031;-82
2023/08/07 04:55:46;;;;;;;2.22;1.00;;;;;;;11.46;56.89;92301.91;4795669;30;20051;-82
2023/08/07 04:58:12;;;;;;;1.58;0.95;;;;;;;11.52;56.92;92307.81;4795546;29;20035;-83
2023/08/07 05:00:38;;;;;;;1.02;0.68;;;;;;;11.54;56.85;92304.91;4795849;29;20055;-83
2023/08/07 05:03:04;;;;;;;1.33;0.70;;;;;;;11.60;56.60;92304.50;4796418;29;20057;-83
2023/08/07 05:05:29;;;;;;;2.83;0.90;;;;;;;11.66;56.98;92315.63;4796300;29;20066;-83
2023/08/07 05:07:55;;;;;;;0.85;0.60;;;;;;;11.73;56.81;92307.34;4795759;29;20080;-82
2023/08/07 05:10:24;;;;;;;1.33;0.70;;;;;;;11.86;54.39;92312.53;4805925;29;20049;-83
2023/08/07 05:12:55;;;;;;;0.88;0.60;;;;;;;12.03;53.47;92311.16;4792342;29;20538;-82
2023/08/07 05:15:25;;;;;;;1.50;0.85;;;;;;;12.17;53.09;92316.34;4793003;29;20747;-83
2023/08/07 05:17:51;;;;;;;2.03;0.90;;;;;;;12.32;52.85;92312.56;4791322;30;20051;-83
2023/08/07 05:20:17;;;;;;;0.63;0.57;;;;;;;12.47;51.52;92309.53;4792700;29;20039;-83
2023/08/07 05:22:43;;;;;;;0.75;0.52;;;;;;;12.61;50.75;92304.19;4793255;29;20120;-83
2023/08/07 05:25:09;;;;;;;0.65;0.57;;;;;;;12.77;51.01;92312.47;4792646;29;20424;-82
2023/08/07 05:27:35;;;;;;;1.48;0.80;;;;;;;12.91;49.99;92300.00;4792597;29;20043;-82
2023/08/07 05:30:01;;;;;;;2.00;0.80;;;;;;;13.04;49.21;92306.22;4776399;30;20054;-82
2023/08/07 05:32:28;;;;;;;1.35;0.70;;;;;;;13.14;50.11;92316.44;4792519;30;20393;-82
2023/08/07 05:34:53;;;;;;;0.70;0.57;;;;;;;13.25;49.41;92314.31;4792782;29;20525;-83
2023/08/07 05:37:19;;;;;;;0.93;0.60;;;;;;;13.35;49.34;92316.66;4806507;29;20048;-83
2023/08/07 05:39:45;;;;;;;0.55;0.50;;;;;;;13.46;49.63;92311.91;4792954;30;20456;-82
2023/08/07 05:42:12;;;;;;;1.48;0.90;;;;;;;13.64;49.46;92317.94;4793203;29;20046;-83
2023/08/07 05:44:38;;;;;;;0.90;0.70;;;;;;;13.71;49.33;92320.88;4792898;29;20122;-82
2023/08/07 05:47:04;;;;;;;0.93;0.60;;;;;;;13.78;49.15;92318.59;4790985;30;20081;-83
2023/08/07 05:49:29;;;;;;;1.60;0.80;;;;;;;13.88;50.64;92317.50;4792653;29;20035;-82
2023/08/07 05:51:55;;;;;;;2.95;0.68;;;;;;;13.96;51.44;92314.09;4792296;30;20078;-82
2023/08/07 05:54:21;;;;;;;0.80;0.60;;;;;;;14.11;50.26;92310.97;4792023;30;20051;-83
2023/08/07 05:56:46;;;;;;;1.40;0.63;;;;;;;14.24;50.61;92319.78;4791791;29;20488;-83
2023/08/07 05:59:12;;;;;;;1.30;0.75;;;;;;;14.40;48.72;92314.03;4791872;29;20055;-83
2023/08/07 06:01:37;;;;;;;4.57;0.70;;;;;;;14.50;50.17;92322.38;4791293;29;20066;-83
2023/08/07 06:04:03;;;;;;;0.60;0.55;;;;;;;14.61;50.81;92317.56;4791817;29;20127;-83
2023/08/07 06:06:29;;;;;;;1.83;0.73;;;;;;;14.95;49.77;92321.16;4791608;29;20040;-83
2023/08/07 06:08:55;;;;;;;3.28;0.75;;;;;;;15.05;50.44;92320.81;4791843;30;20570;-83
2023/08/07 06:11:20;;;;;;;1.98;0.70;;;;;;;15.84;48.19;92331.72;4792886;29;20034;-83
2023/08/07 06:13:46;;;;;;;1.52;0.63;;;;;;;17.03;44.46;92328.59;4791610;29;20052;-83
2023/08/07 06:16:12;;;;;;;1.00;0.50;;;;;;;18.04;41.92;92325.22;4790564;29;20532;-83
2023/08/07 06:18:38;;;;;;;0.55;0.45;;;;;;;18.96;37.04;92329.88;4792150;29;20035;-84
2023/08/07 06:21:07;;;;;;;0.75;0.60;;;;;;;19.71;34.50;92326.34;4792434;30;20064;-84
2023/08/07 06:23:34;;;;;;;1.05;0.60;;;;;;;20.48;34.90;92333.59;4790849;29;20027;-83
2023/08/07 06:26:03;;;;;;;0.93;0.60;;;;;;;21.16;33.79;92334.81;4792132;29;20035;-84
2023/08/07 06:28:30;;;;;;;0.77;0.40;;;;;;;21.49;34.02;92333.47;4791193;30;20046;-85
2023/08/07 06:31:09;;;;;;;0.50;0.50;;;;;;;21.94;33.69;92328.41;4776043;30;20043;-84
2023/08/07 06:33:35;;;;;;;1.08;0.57;;;;;;;22.32;32.86;92332.72;4792212;30;20037;-85
2023/08/07 06:36:02;;;;;;;0.90;0.65;;;;;;;22.88;31.74;92336.38;4792565;29;20300;-82
2023/08/07 06:38:27;;;;;;;0.73;0.60;;;;;;;23.23;31.52;92325.28;4790303;30;20043;-83
2023/08/07 06:40:53;;;;;;;0.60;0.60;;;;;;;23.66;30.93;92330.19;4792183;29;20047;-85
2023/08/07 06:43:19;;;;;;;1.63;0.60;;;;;;;23.79;30.75;92331.44;4788719;30;20047;-84
2023/08/07 06:45:51;;;;;;;1.10;0.93;;;;;;;23.87;30.28;92338.38;4802797;29;20043;-84
2023/08/07 06:48:17;;;;;;;0.68;0.60;;;;;;;24.02;29.88;92343.78;4790356;29;20066;-84
2023/08/07 06:50:43;;;;;;;3.28;0.68;;;;;;;23.80;30.49;92341.00;4790508;29;20051;-83
2023/08/07 06:53:08;;;;;;;0.70;0.60;;;;;;;23.69;31.32;92335.56;4773878;30;20109;-84
2023/08/07 06:55:34;;;;;;;0.40;0.40;;;;;;;23.15;30.45;92345.06;4789660;30;20039;-83
2023/08/07 06:57:59;;;;;;;0.88;0.70;;;;;;;22.66;32.08;92346.06;4774697;30;20595;-83
2023/08/07 07:00:25;;;;;;;0.88;0.63;;;;;;;22.61;31.66;92347.16;4804152;29;20083;-83
2023/08/07 07:02:51;;;;;;;0.82;0.60;;;;;;;22.41;31.87;92349.22;4774449;30;20111;-84
2023/08/07 07:05:17;;;;;;;1.55;0.77;;;;;;;22.56;33.44;92342.16;4789126;30;20066;-84
2023/08/07 07:07:42;;;;;;;1.65;0.80;;;;;;;22.54;32.92;92347.06;4790490;29;20042;-84
2023/08/07 07:10:08;;;;;;;0.82;0.50;;;;;;;22.21;32.33;92348.56;4789701;29;20047;-83
2023/08/07 07:12:34;;;;;;;0.88;0.70;;;;;;;22.45;34.74;92352.69;4790684;29;20055;-83
2023/08/07 07:14:59;;;;;;;1.42;0.47;;;;;;;22.65;32.80;92360.50;4774669;30;20552;-84
2023/08/07 07:17:25;;;;;;;0.82;0.65;;;;;;;22.69;32.48;92352.56;4790399;29;20764;-84
2023/08/07 07:19:51;;;;;;;1.92;0.75;;;;;;;22.81;32.66;92360.31;4790267;30;20051;-84
2023/08/07 07:22:16;;;;;;;5.80;0.95;;;;;;;22.27;32.24;92366.91;4789156;29;20498;-83
2023/08/07 07:24:42;;;;;;;1.95;0.68;;;;;;;22.72;33.38;92371.28;4790816;29;20465;-84
2023/08/07 07:27:07;;;;;;;1.02;0.47;;;;;;;22.51;30.79;92366.44;4789830;29;20062;-84
2023/08/07 07:29:33;;;;;;;0.85;0.60;;;;;;;22.61;31.97;92378.41;4790227;29;20055;-84
2023/08/07 07:31:58;;;;;;;0.88;0.60;;;;;;;22.72;31.24;92386.50;4777365;30;20763;-83
2023/08/07 07:34:24;;;;;;;0.75;0.50;;;;;;;22.93;31.78;92378.75;4789145;29;20039;-85
2023/08/07 07:36:50;;;;;;;0.50;0.40;;;;;;;23.11;31.42;92386.19;4789538;29;20035;-80
2023/08/07 07:39:16;;;;;;;0.45;0.40;;;;;;;23.19;32.30;92387.78;4785884;30;20131;-79
2023/08/07 07:41:42;;;;;;;1.27;0.60;;;;;;;23.13;32.02;92394.63;4787592;29;20414;-79
2023/08/07 07:44:08;;;;;;;0.77;0.40;;;;;;;23.20;32.30;92402.69;4788004;29;20047;-80
2023/08/07 07:46:34;;;;;;;0.50;0.50;;;;;;;23.25;31.29;92397.78;4788905;29;20138;-79
2023/08/07 07:49:00;;;;;;;1.42;0.68;;;;;;;23.23;31.76;92397.38;4790421;30;20043;-79
2023/08/07 07:51:26;;;;;;;0.60;0.50;;;;;;;23.28;30.23;92396.25;4789534;29;20503;-80
2023/08/07 07:53:52;;;;;;;0.70;0.50;;;;;;;22.93;30.53;92408.09;4791476;29;20082;-79
2023/08/07 07:56:18;;;;;;;0.45;0.43;;;;;;;22.95;31.04;92411.19;4790453;29;20387;-80
2023/08/07 07:58:43;;;;;;;0.63;0.60;;;;;;;23.17;31.76;92406.06;4789849;29;20046;-79
2023/08/07 08:01:09;;;;;;;0.30;0.30;;;;;;;23.03;29.70;92412.81;4789751;30;20051;-80
2023/08/07 08:03:35;;;;;;;2.88;0.68;;;;;;;22.78;29.95;92401.06;4789866;29;20039;-80
2023/08/07 08:06:01;;;;;;;0.45;0.45;;;;;;;22.52;29.85;92413.34;4789394;29;20533;-80
2023/08/07 08:08:27;;;;;;;0.32;0.32;;;;;;;22.21;31.12;92417.09;4791283;29;20044;-80
2023/08/07 08:10:52;;;;;;;0.70;0.50;;;;;;;22.35;32.11;92416.53;4789228;30;20100;-79
2023/08/07 08:13:18;;;;;;;1.17;0.70;;;;;;;22.62;32.96;92420.69;4790797;29;20452;-80
2023/08/07 08:15:45;;;;;;;0.40;0.40;;;;;;;22.31;30.42;92429.06;4782011;29;20415;-80
2023/08/07 08:18:11;;;;;;;0.80;0.40;;;;;;;22.30;33.24;92430.19;4789964;29;20046;-80
2023/08/07 08:20:37;;;;;;;0.50;0.45;;;;;;;22.43;33.05;92423.53;4790411;29;20508;-79
2023/08/07 08:23:03;;;;;;;1.23;0.50;;;;;;;22.47;31.94;92428.88;4783564;30;20135;-79
2023/08/07 08:25:29;;;;;;;1.10;0.52;;;;;;;22.47;30.36;92423.56;4788478;30;20054;-78
2023/08/07 08:27:55;;;;;;;0.70;0.50;;;;;;;22.24;31.00;92427.81;4788199;29;20035;-80
2023/08/07 08:30:21;;;;;;;0.70;0.57;;;;;;;22.19;31.69;92435.34;4788492;30;20073;-80
2023/08/07 08:32:46;;;;;;;2.35;0.50;;;;;;;22.31;31.00;92442.38;4774870;30;20074;-79
2023/08/07 08:35:12;;;;;;;0.70;0.57;;;;;;;22.69;33.00;92432.59;4790754;30;20039;-80
2023/08/07 08:37:37;;;;;;;0.70;0.57;;;;;;;22.94;30.60;92430.97;4788667;29;20082;-79
2023/08/07 08:40:03;;;;;;;0.50;0.43;;;;;;;22.56;29.55;92437.38;4790042;30;20107;-79
2023/08/07 08:42:30;;;;;;;0.85;0.50;;;;;;;22.35;30.17;92440.53;4789636;30;20031;-79
2023/08/07 08:44:56;;;;;;;0.63;0.40;;;;;;;21.83;31.28;92440.91;4789162;30;20078;-79
2023/08/07 08:47:24;;;;;;;0.77;0.50;;;;;;;21.80;29.75;92440.88;4791717;30;20046;-80
2023/08/07 08:49:54;;;;;;;1.23;0.65;;;;;;;21.73;31.67;92441.53;4776820;30;20035;-81
2023/08/07 08:52:20;;;;;;;0.60;0.60;;;;;;;21.82;30.11;92433.28;4792345;29;20176;-79
2023/08/07 08:54:47;;;;;;;0.60;0.45;;;;;;;22.19;30.97;92430.00;4791027;30;20043;-78
2023/08/07 08:57:13;;;;;;;1.38;0.52;;;;;;;22.23;30.47;92439.63;4788566;30;20043;-81
2023/08/07 08:59:41;;;;;;;0.88;0.68;;;;;;;22.16;28.86;92431.50;4787844;30;20047;-80
2023/08/07 09:02:08;;;;;;;0.82;0.52;;;;;;;22.29;30.45;92440.09;4786350;29;20114;-81
2023/08/07 09:04:33;;;;;;;2.35;0.90;;;;;;;22.52;29.39;92432.03;4791688;30;20181;-80
2023/08/07 09:07:00;;;;;;;0.50;0.45;;;;;;;21.92;29.95;92440.66;4790551;29;20075;-79
2023/08/07 09:09:27;;;;;;;0.93;0.50;;;;;;;21.90;26.40;92439.50;4793290;29;20481;-80
2023/08/07 09:11:53;;;;;;;0.50;0.50;;;;;;;21.80;28.07;92441.63;4792847;30;20049;-78
2023/08/07 09:14:24;;;;;;;0.77;0.43;;;;;;;21.87;29.69;92438.31;4792819;29;20059;-79
2023/08/07 09:16:51;;;;;;;0.73;0.40;;;;;;;22.05;29.37;92435.91;4790625;29;20470;-80
2023/08/07 09:19:17;;;;;;;0.73;0.63;;;;;;;22.26;28.96;92437.38;4792776;30;20043;-79
2023/08/07 09:21:42;;;;;;;0.82;0.55;;;;;;;22.61;30.85;92440.50;4790806;29;20050;-78
2023/08/07 09:24:09;;;;;;;1.02;0.60;;;;;;;22.33;28.77;92445.47;4791426;29;20043;-79
2023/08/07 09:26:34;;;;;;;1.50;0.75;;;;;;;22.44;28.51;92451.72;4790383;30;20035;-79
2023/08/07 09:29:01;;;;;;;1.25;0.52;;;;;;;21.97;28.84;92445.69;4783592;30;20038;-79
2023/08/07 09:31:27;;;;;;;1.35;0.47;;;;;;;21.72;28.64;92439.22;4792346;30;20036;-79
2023/08/07 09:33:53;;;;;;;1.58;0.47;;;;;;;21.86;27.97;92454.66;4791620;30;20050;-79
2023/08/07 09:36:18;;;;;;;0.73;0.50;;;;;;;21.88;30.29;92457.72;4806978;29;20043;-79
2023/08/07 09:38:50;;;;;;;0.50;0.40;;;;;;;22.10;29.67;92456.16;4792867;29;20051;-79
2023/08/07 09:41:21;;;;;;;0.90;0.52;;;;;;;22.05;27.12;92451.91;4791768;29;20032;-79
2023/08/07 09:43:47;;;;;;;0.68;0.60;;;;;;;21.31;27.58;92452.97;4796395;29;20130;-80
2023/08/07 09:46:12;;;;;;;0.63;0.50;;;;;;;21.46;29.35;92459.34;4790655;29;20602;-78
2023/08/07 09:48:42;;;;;;;2.00;0.60;;;;;;;21.37;30.70;92456.88;4791216;30;20039;-83
2023/08/07 09:51:09;;;;;;;0.57;0.47;;;;;;;21.56;28.39;92450.75;4791584;29;20035;-83
2023/08/07 09:53:34;;;;;;;0.63;0.30;;;;;;;21.18;27.53;92454.25;4791725;30;20114;-83
2023/08/07 09:56:01;;;;;;;1.80;0.63;;;;;;;20.74;28.55;92462.53;4790440;29;20533;-86
2023/08/07 09:58:27;;;;;;;0.85;0.60;;;;;;;20.93;29.26;92459.88;4791109;29;20047;-85
2023/08/07 10:00:53;;;;;;;0.30;0.30;;;;;;;21.40;28.91;92461.50;4793009;30;20043;-83
2023/08/07 10:03:22;;;;;;;4.65;0.55;;;;;;;20.48;28.87;92461.22;4791434;29;20145;-84
2023/08/07 10:05:48;;;;;;;1.20;0.50;;;;;;;20.71;29.16;92453.34;4792141;30;20031;-84
2023/08/07 10:08:14;;;;;;;0.30;0.30;;;;;;;21.07;30.18;92458.59;4792430;29;20031;-83
2023/08/07 10:10:40;;;;;;;0.47;0.40;;;;;;;21.22;30.98;92452.41;4792206;29;20762;-85
2023/08/07 10:13:06;;;;;;;0.52;0.50;;;;;;;20.82;29.02;92456.22;4790869;29;20088;-85
2023/08/07 10:15:34;;;;;;;0.57;0.50;;;;;;;21.34;29.52;92454.13;4791928;30;20043;-84
2023/08/07 10:18:00;;;;;;;1.10;0.60;;;;;;;21.06;27.16;92457.84;4789427;30;20046;-85
2023/08/07 10:20:27;;;;;;;1.27;0.40;;;;;;;21.13;28.83;92443.88;4789402;30;20043;-85
2023/08/07 10:23:06;;;;;;;1.10;0.60;;;;;;;21.17;28.81;92450.81;4788948;30;20403;-82
2023/08/07 10:25:34;;;;;;;0.98;0.60;;;;;;;21.72;31.20;92460.53;4789945;30;20038;-83
2023/08/07 10:28:01;;;;;;;0.80;0.47;;;;;;;21.65;28.12;92455.09;4789881;29;20506;-81
2023/08/07 10:30:29;;;;;;;1.23;0.77;;;;;;;21.38;28.77;92463.72;4789694;30;20076;-82
2023/08/07 10:32:57;;;;;;;1.23;0.70;;;;;;;21.36;26.70;92454.56;4790292;30;20546;-86
2023/08/07 10:35:29;;;;;;;1.23;0.63;;;;;;;21.57;28.72;92452.31;4789477;29;20505;-86
2023/08/07 10:37:54;;;;;;;1.35;0.50;;;;;;;21.76;27.73;92461.34;4789916;29;20036;-83
2023/08/07 10:40:23;;;;;;;1.05;0.50;;;;;;;21.72;27.39;92455.97;4789046;29;20050;-82
2023/08/07 10:42:55;;;;;;;0.65;0.55;;;;;;;22.17;30.91;92457.03;4790738;29;20039;-83
2023/08/07 10:45:23;;;;;;;0.50;0.50;;;;;;;22.24;26.89;92459.81;4790471;30;20514;-85
2023/08/07 10:48:01;;;;;;;1.38;0.52;;;;;;;22.35;27.48;92457.31;4791584;29;20043;-84
2023/08/07 10:50:29;;;;;;;0.75;0.50;;;;;;;22.08;26.54;92437.84;4789952;29;20039;-83
2023/08/07 10:52:55;;;;;;;0.68;0.55;;;;;;;21.98;27.61;92457.13;4787947;30;20039;-85
2023/08/07 10:55:20;;;;;;;2.35;0.80;;;;;;;22.20;27.93;92452.88;4790628;29;20066;-84
2023/08/07 10:57:47;;;;;;;0.40;0.40;;;;;;;21.44;27.70;92450.94;4790447;29;20051;-83
2023/08/07 11:00:13;;;;;;;2.38;0.60;;;;;;;21.59;26.69;92449.25;4795471;29;20065;-84
2023/08/07 11:02:42;;;;;;;0.40;0.40;;;;;;;21.58;29.15;92445.06;4789022;30;20047;-84
2023/08/07 11:05:08;;;;;;;0.65;0.45;;;;;;;21.48;28.90;92446.44;4791303;29;20043;-84
2023/08/07 11:07:34;;;;;;;0.90;0.40;;;;;;;21.99;30.39;92448.75;4788942;29;20122;-83
2023/08/07 11:09:59;;;;;;;3.75;0.60;;;;;;;22.34;29.14;92458.44;4784200;29;20055;-83
2023/08/07 11:12:26;;;;;;;0.80;0.60;;;;;;;22.31;26.74;92455.72;4789170;29;20059;-83
2023/08/07 11:14:58;;;;;;;0.73;0.45;;;;;;;22.11;25.46;92452.34;4789409;29;20035;-85
2023/08/07 11:17:28;;;;;;;1.65;0.68;;;;;;;21.17;26.93;92453.47;4791113;29;20122;-84
2023/08/07 11:19:56;;;;;;;0.93;0.50;;;;;;;21.45;27.40;92452.47;4790522;29;20050;-84
2023/08/07 11:22:22;;;;;;;0.55;0.40;;;;;;;20.99;27.17;92449.72;4791553;29;20035;-84
2023/08/07 11:24:48;;;;;;;1.10;0.60;;;;;;;21.14;26.86;92440.09;4790710;30;20054;-82
2023/08/07 11:27:13;;;;;;;3.53;0.73;;;;;;;21.38;28.94;92447.75;4791769;29;20039;-85
2023/08/07 11:29:39;;;;;;;1.13;0.70;;;;;;;21.85;29.56;92451.22;4791836;30;20035;-84
2023/08/07 11:32:05;;;;;;;0.85;0.50;;;;;;;21.57;25.56;92438.19;4791431;29;20050;-84